createdAt,value
2018-01-22T00:01:37.283Z,84.65
2018-01-22T00:04:05.000Z,84.27
2018-01-22T00:06:32.815Z,84.63
2018-01-22T00:09:00.635Z,84.74
2018-01-22T00:11:28.218Z,85.24
2018-01-22T00:13:55.738Z,85.16
2018-01-22T00:16:23.490Z,85.42
2018-01-22T00:18:51.205Z,85.53
2018-01-22T00:21:19.993Z,85.92
2018-01-22T00:23:47.569Z,86.20
2018-01-22T00:26:15.095Z,86.20
2018-01-22T00:28:42.618Z,85.89
2018-01-22T00:31:10.193Z,86.03
2018-01-22T00:33:37.815Z,85.63
2018-01-22T00:36:05.350Z,85.79
2018-01-22T00:38:33.151Z,85.30
2018-01-22T00:41:00.870Z,85.27
2018-01-22T00:43:28.398Z,85.96
2018-01-22T00:45:56.111Z,85.85
2018-01-22T00:48:23.661Z,85.65
2018-01-22T00:50:51.187Z,85.09
2018-01-22T00:53:18.753Z,85.93
2018-01-22T00:55:46.286Z,85.98
2018-01-22T00:58:13.813Z,85.85
2018-01-22T01:00:41.510Z,85.97
2018-01-22T01:03:09.037Z,86.27
2018-01-22T01:05:36.568Z,86.26
2018-01-22T01:08:04.166Z,86.41
2018-01-22T01:10:31.746Z,86.81
2018-01-22T01:12:59.333Z,86.96
2018-01-22T01:15:26.910Z,86.97
2018-01-22T01:17:54.437Z,86.80
2018-01-22T01:20:22.057Z,85.96
2018-01-22T01:22:49.872Z,86.61
2018-01-22T01:25:17.401Z,87.09
2018-01-22T01:27:45.111Z,86.96
2018-01-22T01:30:12.933Z,86.71
2018-01-22T01:32:40.469Z,86.58
2018-01-22T01:35:08.213Z,86.59
2018-01-22T01:37:35.882Z,86.83
2018-01-22T01:40:03.699Z,87.00
2018-01-22T01:42:31.315Z,87.06
2018-01-22T01:44:58.895Z,87.20
2018-01-22T01:47:26.409Z,87.17
2018-01-22T01:49:53.967Z,87.22
2018-01-22T01:52:21.938Z,87.33
2018-01-22T01:54:49.706Z,86.97
2018-01-22T01:57:17.322Z,86.73
2018-01-22T01:59:44.889Z,86.40
2018-01-22T02:02:12.414Z,86.82
2018-01-22T02:04:39.941Z,86.87
2018-01-22T02:07:07.513Z,86.88
2018-01-22T02:09:35.033Z,86.79
2018-01-22T02:12:02.563Z,86.04
2018-01-22T02:14:30.137Z,85.96
2018-01-22T02:16:57.706Z,86.91
2018-01-22T02:19:25.382Z,87.15
2018-01-22T02:21:53.043Z,87.00
2018-01-22T02:24:20.727Z,86.52
2018-01-22T02:26:48.437Z,86.84
2018-01-22T02:29:16.005Z,86.63
2018-01-22T02:31:43.530Z,85.74
2018-01-22T02:34:11.054Z,85.83
2018-01-22T02:36:38.618Z,85.92
2018-01-22T02:39:06.134Z,86.34
2018-01-22T02:41:33.698Z,86.73
2018-01-22T02:44:01.265Z,85.94
2018-01-22T02:46:28.978Z,85.76
2018-01-22T02:48:56.511Z,86.30
2018-01-22T02:51:24.314Z,85.67
2018-01-22T02:53:51.858Z,85.84
2018-01-22T02:56:19.443Z,86.04
2018-01-22T02:58:47.010Z,86.82
2018-01-22T03:01:14.538Z,86.25
2018-01-22T03:03:42.303Z,86.40
2018-01-22T03:06:09.874Z,86.19
2018-01-22T03:08:37.539Z,86.66
2018-01-22T03:11:05.255Z,87.12
2018-01-22T03:13:32.838Z,86.82
2018-01-22T03:16:00.430Z,86.81
2018-01-22T03:18:27.990Z,87.07
2018-01-22T03:20:55.558Z,86.95
2018-01-22T03:23:23.356Z,86.67
2018-01-22T03:25:51.264Z,86.74
2018-01-22T03:28:18.833Z,87.42
2018-01-22T03:30:46.501Z,86.71
2018-01-22T03:33:14.026Z,87.37
2018-01-22T03:35:41.604Z,87.50
2018-01-22T03:38:09.134Z,87.61
2018-01-22T03:40:36.658Z,87.21
2018-01-22T03:43:04.490Z,87.06
2018-01-22T03:45:32.108Z,87.69
2018-01-22T03:47:59.639Z,87.40
2018-01-22T03:50:27.213Z,87.75
2018-01-22T03:52:54.738Z,87.78
2018-01-22T03:55:22.267Z,87.50
2018-01-22T03:57:49.847Z,87.74
2018-01-22T04:00:17.614Z,87.69
2018-01-22T04:02:45.234Z,87.78
2018-01-22T04:05:12.809Z,87.18
2018-01-22T04:07:40.470Z,87.70
2018-01-22T04:10:08.006Z,88.26
2018-01-22T04:12:35.702Z,88.10
2018-01-22T04:15:03.274Z,88.37
2018-01-22T04:17:31.039Z,87.71
2018-01-22T04:19:58.610Z,87.74
2018-01-22T04:22:26.190Z,88.07
2018-01-22T04:24:53.893Z,88.29
2018-01-22T04:27:21.714Z,87.80
2018-01-22T04:29:49.428Z,88.15
2018-01-22T04:32:17.014Z,87.95
2018-01-22T04:34:44.682Z,88.02
2018-01-22T04:37:12.214Z,87.80
2018-01-22T04:39:39.742Z,88.02
2018-01-22T04:42:07.342Z,87.26
2018-01-22T04:44:34.870Z,87.78
2018-01-22T04:47:02.393Z,87.41
2018-01-22T04:49:30.071Z,87.78
2018-01-22T04:51:57.635Z,87.70
2018-01-22T04:54:25.614Z,87.72
2018-01-22T04:56:53.181Z,87.82
2018-01-22T04:59:20.706Z,88.22
2018-01-22T05:01:48.281Z,88.37
2018-01-22T05:04:16.079Z,88.34
2018-01-22T05:06:43.694Z,87.85
2018-01-22T05:09:11.229Z,88.04
2018-01-22T05:11:38.813Z,87.93
2018-01-22T05:14:06.402Z,88.18
2018-01-22T05:16:33.930Z,88.11
2018-01-22T05:19:01.787Z,88.20
2018-01-22T05:21:29.306Z,87.66
2018-01-22T05:23:56.930Z,87.64
2018-01-22T05:26:24.646Z,87.41
2018-01-22T05:28:52.174Z,87.52
2018-01-22T05:31:19.694Z,87.60
2018-01-22T05:33:47.292Z,87.86
2018-01-22T05:36:14.826Z,88.02
2018-01-22T05:38:42.374Z,88.02
2018-01-22T05:41:09.946Z,87.42
2018-01-22T05:43:37.472Z,87.70
2018-01-22T05:46:05.255Z,87.89
2018-01-22T05:48:32.999Z,87.11
2018-01-22T05:51:00.719Z,87.43
2018-01-22T05:53:28.439Z,87.38
2018-01-22T05:55:56.003Z,87.45
2018-01-22T05:58:23.570Z,87.57
2018-01-22T06:00:51.174Z,87.40
2018-01-22T06:03:18.707Z,87.27
2018-01-22T06:05:46.315Z,87.52
2018-01-22T06:08:13.947Z,87.42
2018-01-22T06:10:41.659Z,87.32
2018-01-22T06:13:09.352Z,87.67
2018-01-22T06:15:36.909Z,87.70
2018-01-22T06:18:04.538Z,87.57
2018-01-22T06:20:32.231Z,87.61
2018-01-22T06:22:59.761Z,87.51
2018-01-22T06:25:27.346Z,87.32
2018-01-22T06:27:55.095Z,87.39
2018-01-22T06:30:22.688Z,86.95
2018-01-22T06:32:50.242Z,87.16
2018-01-22T06:35:17.943Z,87.01
2018-01-22T06:37:45.547Z,87.00
2018-01-22T06:40:13.086Z,87.53
2018-01-22T06:42:40.726Z,87.76
2018-01-22T06:45:08.276Z,87.61
2018-01-22T06:47:35.818Z,87.25
2018-01-22T06:50:03.525Z,86.96
2018-01-22T06:52:31.064Z,86.79
2018-01-22T06:54:58.880Z,87.00
2018-01-22T06:57:26.422Z,87.02
2018-01-22T06:59:53.954Z,87.37
2018-01-22T07:02:21.497Z,87.22
2018-01-22T07:04:49.064Z,86.98
2018-01-22T07:07:16.654Z,86.93
2018-01-22T07:09:44.290Z,87.24
2018-01-22T07:12:11.843Z,86.85
2018-01-22T07:14:39.373Z,86.77
2018-01-22T07:17:07.698Z,87.25
2018-01-22T07:19:35.400Z,87.16
2018-01-22T07:22:03.128Z,87.54
2018-01-22T07:24:30.851Z,86.97
2018-01-22T07:26:58.417Z,87.54
2018-01-22T07:29:26.053Z,86.39
2018-01-22T07:31:53.661Z,86.22
2018-01-22T07:34:21.275Z,86.11
2018-01-22T07:36:49.010Z,86.48
2018-01-22T07:39:16.641Z,86.48
2018-01-22T07:41:44.343Z,86.30
2018-01-22T07:44:11.942Z,86.50
2018-01-22T07:46:39.758Z,86.71
2018-01-22T07:49:07.491Z,86.49
2018-01-22T07:51:35.496Z,86.52
2018-01-22T07:54:03.390Z,85.61
2018-01-22T07:56:31.066Z,84.92
2018-01-22T07:58:58.654Z,85.20
2018-01-22T08:01:26.328Z,85.27
2018-01-22T08:03:53.953Z,85.03
2018-01-22T08:06:21.853Z,84.97
2018-01-22T08:08:49.689Z,85.62
2018-01-22T08:11:17.341Z,85.36
2018-01-22T08:13:44.926Z,85.27
2018-01-22T08:16:12.639Z,85.29
2018-01-22T08:18:40.364Z,84.82
2018-01-22T08:21:08.110Z,84.64
2018-01-22T08:23:35.651Z,85.00
2018-01-22T08:26:03.350Z,84.16
2018-01-22T08:28:30.889Z,84.52
2018-01-22T08:30:59.062Z,84.27
2018-01-22T08:33:26.711Z,84.27
2018-01-22T08:35:54.450Z,84.75
2018-01-22T08:38:22.825Z,84.05
2018-01-22T08:40:50.460Z,84.35
2018-01-22T08:43:18.042Z,84.31
2018-01-22T08:45:45.595Z,84.10
2018-01-22T08:48:13.162Z,84.45
2018-01-22T08:50:40.934Z,85.05
2018-01-22T08:53:08.575Z,84.80
2018-01-22T08:55:36.158Z,85.10
2018-01-22T08:58:03.690Z,84.60
2018-01-22T09:00:31.230Z,84.74
2018-01-22T09:02:58.810Z,85.10
2018-01-22T09:05:26.479Z,84.22
2018-01-22T09:07:54.192Z,84.38
2018-01-22T09:10:21.879Z,84.44
2018-01-22T09:12:49.594Z,84.06
2018-01-22T09:15:17.194Z,84.65
2018-01-22T09:17:44.710Z,83.99
2018-01-22T09:20:12.764Z,83.56
2018-01-22T09:22:41.058Z,83.57
2018-01-22T09:25:08.884Z,83.14
2018-01-22T09:27:36.456Z,83.24
2018-01-22T09:30:04.030Z,83.62
2018-01-22T09:32:31.744Z,83.18
2018-01-22T09:34:59.358Z,83.57
2018-01-22T09:37:26.992Z,83.58
2018-01-22T09:39:54.619Z,83.04
2018-01-22T09:42:22.141Z,83.23
2018-01-22T09:44:50.026Z,83.44
2018-01-22T09:47:17.551Z,83.17
2018-01-22T09:49:45.077Z,83.36
2018-01-22T09:52:12.654Z,83.64
2018-01-22T09:54:40.187Z,84.16
2018-01-22T09:57:07.829Z,84.47
2018-01-22T09:59:35.504Z,84.36
2018-01-22T10:02:03.030Z,84.02
2018-01-22T10:04:30.568Z,83.87
2018-01-22T10:06:58.098Z,84.78
2018-01-22T10:09:25.799Z,84.47
2018-01-22T10:11:53.393Z,84.40
2018-01-22T10:14:21.544Z,84.17
2018-01-22T10:16:49.107Z,84.25
2018-01-22T10:19:16.674Z,84.29
2018-01-22T10:21:44.498Z,84.58
2018-01-22T10:24:12.039Z,84.00
2018-01-22T10:26:39.835Z,84.33
2018-01-22T10:29:07.652Z,84.48
2018-01-22T10:31:35.182Z,83.99
2018-01-22T10:34:02.888Z,83.56
2018-01-22T10:36:30.508Z,84.08
2018-01-22T10:38:58.038Z,84.09
2018-01-22T10:41:25.741Z,83.84
2018-01-22T10:43:53.360Z,84.25
2018-01-22T10:46:20.983Z,83.46
2018-01-22T10:48:48.521Z,83.99
2018-01-22T10:51:16.413Z,84.37
2018-01-22T10:53:43.958Z,84.08
2018-01-22T10:56:11.541Z,83.71
2018-01-22T10:58:39.126Z,82.85
2018-01-22T11:01:06.675Z,83.05
2018-01-22T11:03:34.205Z,82.44
2018-01-22T11:06:01.746Z,82.27
2018-01-22T11:08:29.286Z,82.85
2018-01-22T11:10:56.973Z,83.12
2018-01-22T11:13:25.042Z,82.92
2018-01-22T11:15:58.286Z,82.82
2018-01-22T11:18:26.031Z,82.99
2018-01-22T11:20:53.574Z,82.62
2018-01-22T11:23:21.118Z,83.85
2018-01-22T11:25:48.875Z,83.85
2018-01-22T11:28:16.458Z,84.31
2018-01-22T11:30:43.998Z,84.34
2018-01-22T11:33:11.534Z,84.14
2018-01-22T11:35:39.085Z,83.76
2018-01-22T11:38:06.770Z,83.25
2018-01-22T11:40:34.494Z,83.27
2018-01-22T11:43:02.118Z,83.73
2018-01-22T11:45:29.831Z,83.45
2018-01-22T11:47:57.762Z,83.43
2018-01-22T11:50:25.296Z,83.23
2018-01-22T11:52:53.023Z,82.81
2018-01-22T11:55:20.560Z,83.00
2018-01-22T11:57:48.118Z,83.01
2018-01-22T12:00:15.727Z,83.37
2018-01-22T12:02:43.262Z,83.49
2018-01-22T12:05:11.062Z,83.04
2018-01-22T12:07:38.642Z,84.02
2018-01-22T12:10:06.310Z,84.19
2018-01-22T12:12:33.864Z,84.06
2018-01-22T12:15:01.522Z,84.37
2018-01-22T12:17:29.102Z,83.92
2018-01-22T12:19:56.846Z,83.54
2018-01-22T12:22:24.736Z,83.11
2018-01-22T12:24:52.313Z,82.61
2018-01-22T12:27:20.031Z,83.14
2018-01-22T12:29:47.566Z,83.58
2018-01-22T12:32:15.367Z,83.91
2018-01-22T12:34:42.913Z,84.23
2018-01-22T12:37:10.453Z,84.21
2018-01-22T12:39:38.047Z,84.63
2018-01-22T12:42:05.591Z,84.54
2018-01-22T12:44:33.130Z,84.82
2018-01-22T12:47:00.765Z,84.55
2018-01-22T12:49:28.399Z,84.29
2018-01-22T12:51:55.939Z,84.54
2018-01-22T12:54:23.491Z,84.16
2018-01-22T12:56:51.047Z,84.67
2018-01-22T12:59:18.754Z,85.09
2018-01-22T13:01:46.319Z,85.81
2018-01-22T13:04:13.862Z,86.28
2018-01-22T13:06:41.507Z,86.42
2018-01-22T13:09:09.042Z,86.42
2018-01-22T13:11:36.754Z,85.76
2018-01-22T13:14:04.342Z,86.25
2018-01-22T13:16:31.872Z,86.06
2018-01-22T13:18:59.412Z,85.70
2018-01-22T13:21:26.998Z,85.11
2018-01-22T13:23:54.598Z,84.21
2018-01-22T13:26:22.134Z,84.38
2018-01-22T13:28:49.774Z,84.83
2018-01-22T13:31:17.310Z,84.61
2018-01-22T13:33:44.847Z,84.27
2018-01-22T13:36:12.535Z,84.04
2018-01-22T13:38:40.070Z,84.09
2018-01-22T13:41:13.521Z,84.04
2018-01-22T13:43:41.057Z,84.18
2018-01-22T13:46:08.821Z,84.06
2018-01-22T13:48:36.375Z,84.02
2018-01-22T13:51:03.917Z,84.79
2018-01-22T13:53:31.510Z,84.60
2018-01-22T13:55:59.222Z,84.72
2018-01-22T13:58:26.926Z,84.85
2018-01-22T14:00:54.526Z,84.70
2018-01-22T14:03:22.078Z,84.88
2018-01-22T14:05:49.783Z,85.17
2018-01-22T14:08:17.580Z,85.08
2018-01-22T14:10:45.114Z,84.91
2018-01-22T14:13:12.916Z,85.28
2018-01-22T14:15:40.490Z,85.45
2018-01-22T14:18:08.353Z,85.46
2018-01-22T14:20:35.894Z,85.97
2018-01-22T14:23:03.425Z,86.17
2018-01-22T14:25:31.108Z,86.23
2018-01-22T14:27:58.649Z,86.78
2018-01-22T14:30:26.346Z,86.36
2018-01-22T14:32:53.886Z,86.68
2018-01-22T14:35:21.416Z,86.49
2018-01-22T14:37:48.985Z,86.36
2018-01-22T14:40:16.582Z,86.70
2018-01-22T14:42:44.163Z,86.12
2018-01-22T14:45:11.698Z,86.40
2018-01-22T14:47:39.299Z,86.31
2018-01-22T14:50:06.895Z,86.13
2018-01-22T14:52:34.603Z,85.75
2018-01-22T14:55:02.334Z,85.85
2018-01-22T14:57:29.938Z,86.20
2018-01-22T14:59:57.490Z,86.43
2018-01-22T15:02:25.034Z,86.50
2018-01-22T15:04:52.565Z,86.38
2018-01-22T15:07:20.142Z,86.96
2018-01-22T15:09:47.686Z,87.14
2018-01-22T15:12:15.442Z,86.48
2018-01-22T15:14:42.990Z,86.06
2018-01-22T15:17:10.522Z,86.43
2018-01-22T15:19:38.340Z,86.37
2018-01-22T15:22:05.947Z,86.78
2018-01-22T15:24:33.522Z,86.61
2018-01-22T15:27:01.197Z,86.27
2018-01-22T15:29:28.735Z,86.08
2018-01-22T15:31:56.266Z,86.21
2018-01-22T15:34:23.829Z,86.37
2018-01-22T15:36:51.522Z,86.22
2018-01-22T15:39:19.169Z,86.19
2018-01-22T15:41:46.737Z,86.01
2018-01-22T15:44:14.266Z,86.04
2018-01-22T15:46:41.827Z,85.40
2018-01-22T15:49:09.370Z,85.45
2018-01-22T15:51:36.952Z,85.57
2018-01-22T15:54:04.482Z,84.99
2018-01-22T15:56:32.236Z,84.45
2018-01-22T15:58:59.777Z,85.18
2018-01-22T16:01:27.329Z,86.37
2018-01-22T16:03:54.942Z,86.63
2018-01-22T16:06:22.496Z,86.83
2018-01-22T16:08:50.191Z,86.56
2018-01-22T16:11:17.930Z,85.74
2018-01-22T16:13:45.649Z,86.01
2018-01-22T16:16:13.303Z,84.44
2018-01-22T16:18:40.858Z,83.02
2018-01-22T16:21:08.541Z,83.28
2018-01-22T16:23:36.082Z,83.19
2018-01-22T16:26:03.622Z,83.40
2018-01-22T16:28:31.395Z,84.32
2018-01-22T16:30:59.113Z,83.95
2018-01-22T16:33:26.666Z,84.36
2018-01-22T16:35:54.449Z,84.84
2018-01-22T16:38:22.167Z,84.87
2018-01-22T16:40:49.890Z,84.20
2018-01-22T16:43:17.422Z,84.06
2018-01-22T16:45:44.986Z,84.41
2018-01-22T16:48:12.566Z,84.32
2018-01-22T16:50:40.097Z,84.71
2018-01-22T16:53:07.641Z,84.91
2018-01-22T16:55:35.217Z,84.79
2018-01-22T16:58:02.755Z,84.13
2018-01-22T17:00:30.302Z,84.38
2018-01-22T17:02:58.118Z,84.00
2018-01-22T17:05:25.658Z,84.19
2018-01-22T17:07:53.190Z,84.09
2018-01-22T17:10:20.891Z,83.31
2018-01-22T17:12:48.426Z,83.47
2018-01-22T17:15:15.977Z,83.68
2018-01-22T17:17:43.650Z,83.53
2018-01-22T17:20:11.248Z,83.23
2018-01-22T17:22:38.786Z,83.42
2018-01-22T17:25:06.374Z,83.93
2018-01-22T17:27:34.022Z,83.96
2018-01-22T17:30:01.668Z,84.79
2018-01-22T17:32:29.362Z,83.09
2018-01-22T17:34:56.897Z,82.13
2018-01-22T17:37:24.598Z,82.91
2018-01-22T17:39:52.147Z,83.03
2018-01-22T17:42:19.900Z,82.90
2018-01-22T17:44:47.457Z,83.61
2018-01-22T17:47:15.070Z,82.92
2018-01-22T17:49:42.682Z,83.27
2018-01-22T17:52:10.266Z,82.84
2018-01-22T17:54:37.803Z,82.51
2018-01-22T17:57:05.402Z,82.69
2018-01-22T17:59:32.978Z,82.62
2018-01-22T18:02:00.778Z,83.03
2018-01-22T18:04:28.426Z,83.66
2018-01-22T18:06:56.208Z,83.67
2018-01-22T18:09:23.793Z,83.48
2018-01-22T18:11:51.333Z,84.06
2018-01-22T18:14:19.164Z,84.28
2018-01-22T18:16:46.778Z,83.95
2018-01-22T18:19:14.316Z,84.64
2018-01-22T18:21:41.890Z,84.47
2018-01-22T18:24:09.426Z,84.49
2018-01-22T18:26:36.981Z,84.14
2018-01-22T18:29:04.598Z,84.28
2018-01-22T18:31:32.388Z,85.02
2018-01-22T18:33:59.917Z,85.46
2018-01-22T18:36:27.474Z,85.37
2018-01-22T18:38:55.068Z,85.62
2018-01-22T18:41:22.654Z,85.60
2018-01-22T18:43:50.266Z,86.02
2018-01-22T18:46:17.790Z,86.17
2018-01-22T18:48:45.611Z,86.08
2018-01-22T18:51:13.258Z,86.21
2018-01-22T18:53:40.849Z,86.27
2018-01-22T18:56:08.423Z,85.76
2018-01-22T18:58:35.961Z,86.02
2018-01-22T19:01:03.571Z,85.79
2018-01-22T19:03:31.208Z,85.52
2018-01-22T19:05:58.922Z,85.70
2018-01-22T19:08:26.516Z,85.95
2018-01-22T19:10:54.042Z,85.92
2018-01-22T19:13:21.582Z,85.26
2018-01-22T19:15:49.117Z,85.78
2018-01-22T19:18:16.739Z,85.86
2018-01-22T19:20:44.293Z,85.48
2018-01-22T19:23:12.030Z,85.00
2018-01-22T19:25:39.582Z,84.83
2018-01-22T19:28:07.110Z,84.93
2018-01-22T19:30:34.815Z,85.36
2018-01-22T19:33:02.360Z,85.08
2018-01-22T19:35:29.912Z,85.26
2018-01-22T19:37:57.667Z,85.10
2018-01-22T19:40:25.383Z,85.62
2018-01-22T19:42:53.013Z,85.41
2018-01-22T19:45:20.727Z,85.82
2018-01-22T19:47:48.253Z,85.88
2018-01-22T19:50:15.811Z,85.33
2018-01-22T19:52:43.354Z,85.06
2018-01-22T19:55:10.964Z,85.46
2018-01-22T19:57:38.498Z,85.76
2018-01-22T20:00:06.070Z,85.53
2018-01-22T20:02:33.817Z,86.15
2018-01-22T20:05:01.366Z,85.74
2018-01-22T20:07:28.949Z,86.13
2018-01-22T20:09:56.486Z,86.00
2018-01-22T20:12:24.045Z,86.49
2018-01-22T20:14:51.622Z,87.03
2018-01-22T20:17:19.150Z,87.14
2018-01-22T20:19:46.927Z,87.40
2018-01-22T20:22:14.585Z,87.23
2018-01-22T20:24:42.147Z,86.93
2018-01-22T20:27:09.712Z,86.60
2018-01-22T20:29:37.310Z,86.77
2018-01-22T20:32:04.886Z,86.78
2018-01-22T20:34:32.579Z,87.17
2018-01-22T20:37:00.194Z,87.53
2018-01-22T20:39:27.808Z,86.04
2018-01-22T20:41:55.498Z,86.47
2018-01-22T20:44:23.079Z,86.73
2018-01-22T20:46:50.618Z,86.88
2018-01-22T20:49:18.154Z,86.69
2018-01-22T20:51:45.702Z,86.14
2018-01-22T20:54:13.705Z,85.90
2018-01-22T20:56:41.355Z,84.82
2018-01-22T20:59:08.890Z,84.89
2018-01-22T21:01:36.430Z,85.52
2018-01-22T21:04:04.014Z,85.62
2018-01-22T21:06:31.566Z,85.14
2018-01-22T21:08:59.324Z,84.30
2018-01-22T21:11:26.854Z,84.30
2018-01-22T21:13:54.470Z,84.02
2018-01-22T21:16:22.022Z,84.12
2018-01-22T21:18:49.795Z,84.26
2018-01-22T21:21:17.487Z,83.86
2018-01-22T21:23:45.132Z,84.06
2018-01-22T21:26:12.662Z,83.74
2018-01-22T21:28:40.467Z,83.45
2018-01-22T21:31:08.006Z,83.50
2018-01-22T21:33:35.592Z,83.60
2018-01-22T21:36:03.193Z,83.70
2018-01-22T21:38:30.893Z,83.04
2018-01-22T21:40:58.548Z,83.07
2018-01-22T21:43:26.275Z,82.89
2018-01-22T21:45:53.890Z,83.39
2018-01-22T21:48:21.430Z,83.38
2018-01-22T21:50:48.982Z,83.04
2018-01-22T21:53:16.714Z,83.16
2018-01-22T21:55:45.293Z,82.99
2018-01-22T21:58:12.874Z,82.19
2018-01-22T22:00:40.421Z,83.03
2018-01-22T22:03:07.970Z,82.23
2018-01-22T22:05:35.638Z,82.13
2018-01-22T22:08:03.329Z,81.52
2018-01-22T22:10:30.922Z,81.67
2018-01-22T22:12:58.666Z,81.25
2018-01-22T22:15:26.312Z,81.58
2018-01-22T22:17:53.936Z,82.63
2018-01-22T22:20:21.649Z,81.77
2018-01-22T22:22:49.299Z,81.74
2018-01-22T22:25:17.233Z,81.90
2018-01-22T22:27:44.966Z,82.33
2018-01-22T22:30:12.618Z,82.09
2018-01-22T22:32:40.162Z,81.93
2018-01-22T22:35:07.762Z,82.38
2018-01-22T22:37:35.379Z,82.61
2018-01-22T22:40:03.046Z,82.26
2018-01-22T22:42:30.716Z,81.83
2018-01-22T22:44:58.246Z,81.62
2018-01-22T22:47:25.826Z,81.38
2018-01-22T22:49:53.377Z,81.40
2018-01-22T22:52:21.078Z,80.93
2018-01-22T22:54:48.662Z,79.90
2018-01-22T22:57:16.194Z,79.48
2018-01-22T22:59:43.773Z,80.87
2018-01-22T23:02:11.313Z,81.13
2018-01-22T23:04:38.854Z,81.05
2018-01-22T23:07:06.454Z,80.69
2018-01-22T23:09:34.102Z,81.01
2018-01-22T23:12:01.712Z,81.58
2018-01-22T23:14:29.340Z,82.72
2018-01-22T23:16:56.910Z,82.54
2018-01-22T23:19:24.479Z,82.12
2018-01-22T23:21:52.090Z,81.53
2018-01-22T23:24:19.678Z,81.24
2018-01-22T23:26:47.217Z,80.88
2018-01-22T23:29:14.815Z,80.87
2018-01-22T23:31:42.390Z,79.72
2018-01-22T23:34:09.986Z,79.99
2018-01-22T23:36:37.513Z,79.11
2018-01-22T23:39:05.148Z,79.39
2018-01-22T23:41:32.680Z,80.17
2018-01-22T23:44:00.214Z,79.79
2018-01-22T23:46:27.795Z,78.40
2018-01-22T23:48:55.335Z,78.40
2018-01-22T23:51:22.874Z,79.73
2018-01-22T23:53:50.458Z,81.49
2018-01-22T23:56:18.162Z,82.97
2018-01-22T23:58:45.747Z,84.17
